sensor_id;sensor_type;location;lat;lon;timestamp;P1;durP1;ratioP1;P2;durP2;ratioP2
40951;SDS011;26682;51.660;19.338;2023-04-03T00:02:04;10.93;;;4.60;;
40951;SDS011;26682;51.660;19.338;2023-04-03T00:04:46;10.45;;;3.88;;
40951;SDS011;26682;51.660;19.338;2023-04-03T00:07:29;11.68;;;4.65;;
40951;SDS011;26682;51.660;19.338;2023-04-03T00:10:11;11.15;;;4.28;;
40951;SDS011;26682;51.660;19.338;2023-04-03T00:12:55;8.00;;;3.55;;
40951;SDS011;26682;51.660;19.338;2023-04-03T00:15:38;17.05;;;6.43;;
40951;SDS011;26682;51.660;19.338;2023-04-03T00:18:21;7.63;;;3.28;;
40951;SDS011;26682;51.660;19.338;2023-04-03T00:21:04;18.08;;;6.50;;
40951;SDS011;26682;51.660;19.338;2023-04-03T00:23:47;16.15;;;5.55;;
40951;SDS011;26682;51.660;19.338;2023-04-03T00:26:30;19.35;;;6.28;;
40951;SDS011;26682;51.660;19.338;2023-04-03T00:29:13;28.77;;;9.25;;
40951;SDS011;26682;51.660;19.338;2023-04-03T00:31:56;11.25;;;4.45;;
40951;SDS011;26682;51.660;19.338;2023-04-03T00:34:38;5.22;;;2.75;;
40951;SDS011;26682;51.660;19.338;2023-04-03T00:37:20;10.13;;;4.45;;
40951;SDS011;26682;51.660;19.338;2023-04-03T00:40:03;11.40;;;3.60;;
40951;SDS011;26682;51.660;19.338;2023-04-03T00:42:46;8.93;;;3.95;;
40951;SDS011;26682;51.660;19.338;2023-04-03T00:49:00;7.45;;;3.40;;
40951;SDS011;26682;51.660;19.338;2023-04-03T00:51:24;19.38;;;6.38;;
40951;SDS011;26682;51.660;19.338;2023-04-03T00:54:08;17.13;;;5.78;;
40951;SDS011;26682;51.660;19.338;2023-04-03T00:56:51;13.20;;;5.22;;
40951;SDS011;26682;51.660;19.338;2023-04-03T00:59:38;11.32;;;6.00;;
40951;SDS011;26682;51.660;19.338;2023-04-03T01:02:28;8.60;;;3.65;;
40951;SDS011;26682;51.660;19.338;2023-04-03T01:05:11;24.15;;;9.18;;
40951;SDS011;26682;51.660;19.338;2023-04-03T01:07:58;17.35;;;7.88;;
40951;SDS011;26682;51.660;19.338;2023-04-03T01:10:42;13.27;;;5.95;;
40951;SDS011;26682;51.660;19.338;2023-04-03T01:13:26;14.48;;;5.32;;
40951;SDS011;26682;51.660;19.338;2023-04-03T01:16:11;10.35;;;4.07;;
40951;SDS011;26682;51.660;19.338;2023-04-03T01:18:53;7.53;;;3.22;;
40951;SDS011;26682;51.660;19.338;2023-04-03T01:24:37;14.30;;;6.25;;
40951;SDS011;26682;51.660;19.338;2023-04-03T01:27:24;18.35;;;7.82;;
40951;SDS011;26682;51.660;19.338;2023-04-03T01:30:08;11.13;;;5.00;;
40951;SDS011;26682;51.660;19.338;2023-04-03T01:32:50;12.85;;;6.47;;
40951;SDS011;26682;51.660;19.338;2023-04-03T01:35:35;17.75;;;8.20;;
40951;SDS011;26682;51.660;19.338;2023-04-03T01:38:17;20.10;;;8.73;;
40951;SDS011;26682;51.660;19.338;2023-04-03T01:41:00;9.35;;;3.50;;
40951;SDS011;26682;51.660;19.338;2023-04-03T01:43:43;7.88;;;4.47;;
40951;SDS011;26682;51.660;19.338;2023-04-03T01:46:26;11.30;;;4.10;;
40951;SDS011;26682;51.660;19.338;2023-04-03T01:49:08;10.95;;;4.60;;
40951;SDS011;26682;51.660;19.338;2023-04-03T01:51:51;7.30;;;3.40;;
40951;SDS011;26682;51.660;19.338;2023-04-03T01:54:34;15.60;;;5.95;;
40951;SDS011;26682;51.660;19.338;2023-04-03T01:57:17;17.05;;;6.32;;
40951;SDS011;26682;51.660;19.338;2023-04-03T01:59:59;10.52;;;4.65;;
40951;SDS011;26682;51.660;19.338;2023-04-03T02:02:42;6.65;;;3.95;;
40951;SDS011;26682;51.660;19.338;2023-04-03T02:05:25;18.10;;;7.53;;
40951;SDS011;26682;51.660;19.338;2023-04-03T02:08:07;16.20;;;5.57;;
40951;SDS011;26682;51.660;19.338;2023-04-03T02:10:50;25.20;;;9.05;;
40951;SDS011;26682;51.660;19.338;2023-04-03T02:13:33;16.33;;;6.40;;
40951;SDS011;26682;51.660;19.338;2023-04-03T02:16:15;10.63;;;3.55;;
40951;SDS011;26682;51.660;19.338;2023-04-03T02:19:00;6.82;;;3.13;;
40951;SDS011;26682;51.660;19.338;2023-04-03T02:21:44;7.68;;;3.13;;
40951;SDS011;26682;51.660;19.338;2023-04-03T02:24:26;17.50;;;6.80;;
40951;SDS011;26682;51.660;19.338;2023-04-03T02:27:09;13.35;;;4.22;;
40951;SDS011;26682;51.660;19.338;2023-04-03T02:29:51;7.22;;;3.25;;
40951;SDS011;26682;51.660;19.338;2023-04-03T02:32:34;14.70;;;5.47;;
40951;SDS011;26682;51.660;19.338;2023-04-03T02:35:17;15.63;;;5.55;;
40951;SDS011;26682;51.660;19.338;2023-04-03T02:38:00;16.70;;;5.82;;
40951;SDS011;26682;51.660;19.338;2023-04-03T02:40:43;7.30;;;3.13;;
40951;SDS011;26682;51.660;19.338;2023-04-03T02:43:25;14.40;;;5.20;;
40951;SDS011;26682;51.660;19.338;2023-04-03T02:46:08;7.15;;;3.50;;
40951;SDS011;26682;51.660;19.338;2023-04-03T02:48:50;13.25;;;4.82;;
40951;SDS011;26682;51.660;19.338;2023-04-03T02:51:34;8.20;;;4.30;;
40951;SDS011;26682;51.660;19.338;2023-04-03T02:54:16;16.05;;;6.40;;
40951;SDS011;26682;51.660;19.338;2023-04-03T02:57:03;13.25;;;5.60;;
40951;SDS011;26682;51.660;19.338;2023-04-03T02:59:45;13.40;;;4.60;;
40951;SDS011;26682;51.660;19.338;2023-04-03T03:02:28;7.97;;;3.55;;
40951;SDS011;26682;51.660;19.338;2023-04-03T03:05:11;14.73;;;6.03;;
40951;SDS011;26682;51.660;19.338;2023-04-03T03:07:53;13.48;;;5.75;;
40951;SDS011;26682;51.660;19.338;2023-04-03T03:10:36;9.02;;;4.43;;
40951;SDS011;26682;51.660;19.338;2023-04-03T03:13:21;12.63;;;5.75;;
40951;SDS011;26682;51.660;19.338;2023-04-03T03:16:04;10.40;;;4.63;;
40951;SDS011;26682;51.660;19.338;2023-04-03T03:18:47;8.88;;;4.13;;
40951;SDS011;26682;51.660;19.338;2023-04-03T03:21:29;18.50;;;6.57;;
40951;SDS011;26682;51.660;19.338;2023-04-03T03:24:12;14.00;;;6.07;;
40951;SDS011;26682;51.660;19.338;2023-04-03T03:26:54;10.15;;;5.10;;
40951;SDS011;26682;51.660;19.338;2023-04-03T03:29:37;7.30;;;3.17;;
40951;SDS011;26682;51.660;19.338;2023-04-03T03:32:19;8.32;;;4.60;;
40951;SDS011;26682;51.660;19.338;2023-04-03T03:35:02;12.43;;;4.32;;
40951;SDS011;26682;51.660;19.338;2023-04-03T03:37:44;18.67;;;6.43;;
40951;SDS011;26682;51.660;19.338;2023-04-03T03:40:27;4.95;;;3.03;;
40951;SDS011;26682;51.660;19.338;2023-04-03T03:43:10;14.25;;;6.05;;
40951;SDS011;26682;51.660;19.338;2023-04-03T03:45:53;7.32;;;3.38;;
40951;SDS011;26682;51.660;19.338;2023-04-03T03:48:37;11.57;;;5.20;;
40951;SDS011;26682;51.660;19.338;2023-04-03T03:51:20;13.52;;;4.95;;
40951;SDS011;26682;51.660;19.338;2023-04-03T03:54:03;10.07;;;3.80;;
40951;SDS011;26682;51.660;19.338;2023-04-03T03:56:46;18.02;;;5.22;;
40951;SDS011;26682;51.660;19.338;2023-04-03T03:59:28;8.05;;;3.33;;
40951;SDS011;26682;51.660;19.338;2023-04-03T04:02:11;9.90;;;4.13;;
40951;SDS011;26682;51.660;19.338;2023-04-03T04:04:54;7.18;;;3.22;;
40951;SDS011;26682;51.660;19.338;2023-04-03T04:07:37;12.23;;;4.50;;
40951;SDS011;26682;51.660;19.338;2023-04-03T04:10:20;4.80;;;3.05;;
40951;SDS011;26682;51.660;19.338;2023-04-03T04:13:03;10.45;;;4.18;;
40951;SDS011;26682;51.660;19.338;2023-04-03T04:15:46;16.55;;;6.43;;
40951;SDS011;26682;51.660;19.338;2023-04-03T04:18:30;5.82;;;3.05;;
40951;SDS011;26682;51.660;19.338;2023-04-03T04:21:12;11.13;;;4.35;;
40951;SDS011;26682;51.660;19.338;2023-04-03T04:23:56;17.33;;;5.25;;
40951;SDS011;26682;51.660;19.338;2023-04-03T04:26:40;8.45;;;4.45;;
40951;SDS011;26682;51.660;19.338;2023-04-03T04:29:25;12.48;;;5.32;;
40951;SDS011;26682;51.660;19.338;2023-04-03T04:32:08;10.07;;;4.10;;
40951;SDS011;26682;51.660;19.338;2023-04-03T04:34:51;11.05;;;5.20;;
40951;SDS011;26682;51.660;19.338;2023-04-03T04:37:33;9.93;;;4.70;;
40951;SDS011;26682;51.660;19.338;2023-04-03T04:40:17;10.88;;;5.35;;
40951;SDS011;26682;51.660;19.338;2023-04-03T04:43:00;11.35;;;4.60;;
40951;SDS011;26682;51.660;19.338;2023-04-03T04:45:43;48.05;;;15.38;;
40951;SDS011;26682;51.660;19.338;2023-04-03T04:48:26;71.25;;;20.35;;
40951;SDS011;26682;51.660;19.338;2023-04-03T04:51:09;85.03;;;22.77;;
40951;SDS011;26682;51.660;19.338;2023-04-03T04:53:53;90.85;;;29.30;;
40951;SDS011;26682;51.660;19.338;2023-04-03T04:56:38;89.45;;;24.42;;
40951;SDS011;26682;51.660;19.338;2023-04-03T04:59:20;151.00;;;43.17;;
40951;SDS011;26682;51.660;19.338;2023-04-03T05:02:06;98.32;;;30.23;;
40951;SDS011;26682;51.660;19.338;2023-04-03T05:04:49;148.73;;;44.08;;
40951;SDS011;26682;51.660;19.338;2023-04-03T05:07:38;119.00;;;39.58;;
40951;SDS011;26682;51.660;19.338;2023-04-03T05:10:22;50.53;;;15.38;;
40951;SDS011;26682;51.660;19.338;2023-04-03T05:13:04;32.88;;;12.00;;
40951;SDS011;26682;51.660;19.338;2023-04-03T05:15:46;14.93;;;6.07;;
40951;SDS011;26682;51.660;19.338;2023-04-03T05:18:29;28.48;;;10.27;;
40951;SDS011;26682;51.660;19.338;2023-04-03T05:21:16;18.45;;;7.38;;
40951;SDS011;26682;51.660;19.338;2023-04-03T05:24:02;25.52;;;11.27;;
40951;SDS011;26682;51.660;19.338;2023-04-03T05:26:47;30.08;;;12.50;;
40951;SDS011;26682;51.660;19.338;2023-04-03T05:29:30;45.90;;;18.38;;
40951;SDS011;26682;51.660;19.338;2023-04-03T05:32:14;19.80;;;8.50;;
40951;SDS011;26682;51.660;19.338;2023-04-03T05:34:58;22.23;;;9.75;;
40951;SDS011;26682;51.660;19.338;2023-04-03T05:37:42;19.05;;;7.63;;
40951;SDS011;26682;51.660;19.338;2023-04-03T05:40:25;7.97;;;4.00;;
40951;SDS011;26682;51.660;19.338;2023-04-03T05:43:10;15.15;;;6.85;;
40951;SDS011;26682;51.660;19.338;2023-04-03T05:45:55;10.00;;;4.70;;
40951;SDS011;26682;51.660;19.338;2023-04-03T05:48:39;15.48;;;7.30;;
40951;SDS011;26682;51.660;19.338;2023-04-03T05:51:25;14.73;;;7.63;;
40951;SDS011;26682;51.660;19.338;2023-04-03T05:54:36;16.25;;;7.65;;
40951;SDS011;26682;51.660;19.338;2023-04-03T05:57:29;18.85;;;8.88;;
40951;SDS011;26682;51.660;19.338;2023-04-03T06:00:15;16.00;;;7.32;;
40951;SDS011;26682;51.660;19.338;2023-04-03T06:03:07;11.27;;;5.63;;
40951;SDS011;26682;51.660;19.338;2023-04-03T06:05:50;11.38;;;6.10;;
40951;SDS011;26682;51.660;19.338;2023-04-03T06:08:33;11.48;;;6.25;;
40951;SDS011;26682;51.660;19.338;2023-04-03T06:11:16;10.57;;;5.63;;
40951;SDS011;26682;51.660;19.338;2023-04-03T06:13:59;9.00;;;3.90;;
40951;SDS011;26682;51.660;19.338;2023-04-03T06:16:43;6.40;;;3.35;;
40951;SDS011;26682;51.660;19.338;2023-04-03T06:19:26;6.15;;;4.22;;
40951;SDS011;26682;51.660;19.338;2023-04-03T06:22:10;9.02;;;4.28;;
40951;SDS011;26682;51.660;19.338;2023-04-03T06:24:53;6.57;;;3.70;;
40951;SDS011;26682;51.660;19.338;2023-04-03T06:27:36;10.32;;;5.25;;
40951;SDS011;26682;51.660;19.338;2023-04-03T06:30:19;10.82;;;4.10;;
40951;SDS011;26682;51.660;19.338;2023-04-03T06:33:01;8.45;;;3.53;;
40951;SDS011;26682;51.660;19.338;2023-04-03T06:35:45;7.32;;;3.83;;
40951;SDS011;26682;51.660;19.338;2023-04-03T06:38:27;5.15;;;3.00;;
40951;SDS011;26682;51.660;19.338;2023-04-03T06:41:10;7.50;;;3.25;;
40951;SDS011;26682;51.660;19.338;2023-04-03T06:43:52;5.50;;;2.88;;
40951;SDS011;26682;51.660;19.338;2023-04-03T06:46:35;5.82;;;3.00;;
40951;SDS011;26682;51.660;19.338;2023-04-03T06:49:18;7.30;;;3.50;;
40951;SDS011;26682;51.660;19.338;2023-04-03T06:52:00;7.22;;;3.45;;
40951;SDS011;26682;51.660;19.338;2023-04-03T06:54:43;9.57;;;3.85;;
40951;SDS011;26682;51.660;19.338;2023-04-03T06:57:26;4.68;;;2.70;;
40951;SDS011;26682;51.660;19.338;2023-04-03T07:00:10;6.35;;;3.13;;
40951;SDS011;26682;51.660;19.338;2023-04-03T07:02:53;3.97;;;3.03;;
40951;SDS011;26682;51.660;19.338;2023-04-03T07:05:38;6.38;;;3.60;;
40951;SDS011;26682;51.660;19.338;2023-04-03T07:08:22;7.75;;;2.90;;
40951;SDS011;26682;51.660;19.338;2023-04-03T07:11:05;4.28;;;2.55;;
40951;SDS011;26682;51.660;19.338;2023-04-03T07:13:48;6.90;;;3.53;;
40951;SDS011;26682;51.660;19.338;2023-04-03T07:16:32;7.75;;;3.20;;
40951;SDS011;26682;51.660;19.338;2023-04-03T07:19:14;7.78;;;3.90;;
40951;SDS011;26682;51.660;19.338;2023-04-03T07:21:57;5.22;;;3.35;;
40951;SDS011;26682;51.660;19.338;2023-04-03T07:24:39;9.63;;;5.88;;
40951;SDS011;26682;51.660;19.338;2023-04-03T07:27:21;10.07;;;4.18;;
40951;SDS011;26682;51.660;19.338;2023-04-03T07:30:04;5.55;;;2.50;;
40951;SDS011;26682;51.660;19.338;2023-04-03T07:32:48;5.32;;;2.25;;
40951;SDS011;26682;51.660;19.338;2023-04-03T07:35:30;5.90;;;2.58;;
40951;SDS011;26682;51.660;19.338;2023-04-03T07:38:13;6.80;;;2.85;;
40951;SDS011;26682;51.660;19.338;2023-04-03T07:40:55;4.25;;;2.70;;
40951;SDS011;26682;51.660;19.338;2023-04-03T07:43:37;5.05;;;2.95;;
40951;SDS011;26682;51.660;19.338;2023-04-03T07:46:20;4.50;;;2.28;;
40951;SDS011;26682;51.660;19.338;2023-04-03T07:49:02;4.82;;;2.40;;
40951;SDS011;26682;51.660;19.338;2023-04-03T07:51:45;10.90;;;3.50;;
40951;SDS011;26682;51.660;19.338;2023-04-03T07:54:28;6.15;;;2.65;;
40951;SDS011;26682;51.660;19.338;2023-04-03T07:57:10;4.72;;;2.20;;
40951;SDS011;26682;51.660;19.338;2023-04-03T07:59:53;4.38;;;2.65;;
40951;SDS011;26682;51.660;19.338;2023-04-03T08:02:36;4.63;;;2.22;;
40951;SDS011;26682;51.660;19.338;2023-04-03T08:05:18;6.28;;;2.30;;
40951;SDS011;26682;51.660;19.338;2023-04-03T08:08:01;3.55;;;2.13;;
40951;SDS011;26682;51.660;19.338;2023-04-03T08:10:45;4.00;;;2.00;;
40951;SDS011;26682;51.660;19.338;2023-04-03T08:13:32;6.65;;;2.60;;
40951;SDS011;26682;51.660;19.338;2023-04-03T08:16:17;6.25;;;2.72;;
40951;SDS011;26682;51.660;19.338;2023-04-03T08:19:02;3.90;;;2.20;;
40951;SDS011;26682;51.660;19.338;2023-04-03T08:21:50;5.28;;;2.50;;
40951;SDS011;26682;51.660;19.338;2023-04-03T08:24:33;5.50;;;2.30;;
40951;SDS011;26682;51.660;19.338;2023-04-03T08:27:18;7.72;;;3.33;;
40951;SDS011;26682;51.660;19.338;2023-04-03T08:30:01;9.32;;;2.50;;
40951;SDS011;26682;51.660;19.338;2023-04-03T08:32:43;9.95;;;3.85;;
40951;SDS011;26682;51.660;19.338;2023-04-03T08:35:27;23.98;;;12.63;;
40951;SDS011;26682;51.660;19.338;2023-04-03T08:38:10;5.82;;;2.50;;
40951;SDS011;26682;51.660;19.338;2023-04-03T08:44:04;6.38;;;3.15;;
40951;SDS011;26682;51.660;19.338;2023-04-03T08:47:25;5.60;;;3.00;;
40951;SDS011;26682;51.660;19.338;2023-04-03T08:50:17;5.22;;;2.60;;
40951;SDS011;26682;51.660;19.338;2023-04-03T08:53:03;18.05;;;7.97;;
40951;SDS011;26682;51.660;19.338;2023-04-03T08:55:53;3.33;;;2.40;;
40951;SDS011;26682;51.660;19.338;2023-04-03T08:58:55;3.55;;;2.03;;
40951;SDS011;26682;51.660;19.338;2023-04-03T09:01:39;5.00;;;2.20;;
40951;SDS011;26682;51.660;19.338;2023-04-03T09:04:26;4.45;;;2.08;;
40951;SDS011;26682;51.660;19.338;2023-04-03T09:07:14;6.25;;;2.35;;
40951;SDS011;26682;51.660;19.338;2023-04-03T09:10:05;4.85;;;2.10;;
40951;SDS011;26682;51.660;19.338;2023-04-03T09:12:53;6.80;;;2.70;;
40951;SDS011;26682;51.660;19.338;2023-04-03T09:15:43;4.18;;;1.80;;
40951;SDS011;26682;51.660;19.338;2023-04-03T09:18:28;3.20;;;1.83;;
40951;SDS011;26682;51.660;19.338;2023-04-03T09:21:23;5.15;;;2.17;;
40951;SDS011;26682;51.660;19.338;2023-04-03T09:24:12;4.75;;;2.25;;
40951;SDS011;26682;51.660;19.338;2023-04-03T09:27:04;4.87;;;2.40;;
40951;SDS011;26682;51.660;19.338;2023-04-03T09:29:52;6.38;;;2.20;;
40951;SDS011;26682;51.660;19.338;2023-04-03T09:32:38;3.67;;;1.70;;
40951;SDS011;26682;51.660;19.338;2023-04-03T09:35:28;4.13;;;2.17;;
40951;SDS011;26682;51.660;19.338;2023-04-03T09:38:27;7.95;;;2.75;;
40951;SDS011;26682;51.660;19.338;2023-04-03T09:41:15;4.28;;;2.00;;
40951;SDS011;26682;51.660;19.338;2023-04-03T09:43:59;4.80;;;2.83;;
40951;SDS011;26682;51.660;19.338;2023-04-03T09:46:41;3.58;;;2.25;;
40951;SDS011;26682;51.660;19.338;2023-04-03T09:49:24;6.10;;;2.88;;
40951;SDS011;26682;51.660;19.338;2023-04-03T09:52:22;4.95;;;2.05;;
40951;SDS011;26682;51.660;19.338;2023-04-03T09:55:17;10.52;;;2.45;;
40951;SDS011;26682;51.660;19.338;2023-04-03T09:58:27;2.58;;;1.63;;
40951;SDS011;26682;51.660;19.338;2023-04-03T10:01:31;4.97;;;2.58;;
40951;SDS011;26682;51.660;19.338;2023-04-03T10:04:19;3.70;;;1.65;;
40951;SDS011;26682;51.660;19.338;2023-04-03T10:07:04;6.03;;;2.30;;
40951;SDS011;26682;51.660;19.338;2023-04-03T10:13:17;3.83;;;2.03;;
40951;SDS011;26682;51.660;19.338;2023-04-03T10:16:03;4.80;;;2.78;;
40951;SDS011;26682;51.660;19.338;2023-04-03T10:19:05;7.38;;;2.40;;
40951;SDS011;26682;51.660;19.338;2023-04-03T10:21:57;5.82;;;2.80;;
40951;SDS011;26682;51.660;19.338;2023-04-03T10:24:48;5.97;;;1.90;;
40951;SDS011;26682;51.660;19.338;2023-04-03T10:42:08;4.93;;;2.05;;
40951;SDS011;26682;51.660;19.338;2023-04-03T10:45:13;7.50;;;2.20;;
40951;SDS011;26682;51.660;19.338;2023-04-03T10:54:03;3.10;;;2.03;;
40951;SDS011;26682;51.660;19.338;2023-04-03T10:56:51;3.70;;;1.80;;
40951;SDS011;26682;51.660;19.338;2023-04-03T11:02:48;5.43;;;1.98;;
40951;SDS011;26682;51.660;19.338;2023-04-03T11:05:42;3.72;;;2.00;;
40951;SDS011;26682;51.660;19.338;2023-04-03T11:08:33;3.63;;;2.00;;
40951;SDS011;26682;51.660;19.338;2023-04-03T11:11:24;6.18;;;2.20;;
40951;SDS011;26682;51.660;19.338;2023-04-03T11:14:23;2.65;;;1.33;;
40951;SDS011;26682;51.660;19.338;2023-04-03T11:20:06;3.72;;;2.03;;
40951;SDS011;26682;51.660;19.338;2023-04-03T11:23:04;6.80;;;3.63;;
40951;SDS011;26682;51.660;19.338;2023-04-03T11:26:05;10.35;;;5.15;;
40951;SDS011;26682;51.660;19.338;2023-04-03T11:29:13;21.77;;;11.88;;
40951;SDS011;26682;51.660;19.338;2023-04-03T11:35:16;5.40;;;3.35;;
40951;SDS011;26682;51.660;19.338;2023-04-03T11:38:00;8.90;;;3.78;;
40951;SDS011;26682;51.660;19.338;2023-04-03T11:40:47;7.10;;;3.45;;
40951;SDS011;26682;51.660;19.338;2023-04-03T11:43:32;4.60;;;2.50;;
40951;SDS011;26682;51.660;19.338;2023-04-03T11:46:15;7.63;;;3.70;;
40951;SDS011;26682;51.660;19.338;2023-04-03T11:49:00;11.20;;;4.28;;
40951;SDS011;26682;51.660;19.338;2023-04-03T11:51:43;11.15;;;4.13;;
40951;SDS011;26682;51.660;19.338;2023-04-03T11:57:43;6.10;;;2.85;;
40951;SDS011;26682;51.660;19.338;2023-04-03T12:03:33;12.25;;;4.13;;
40951;SDS011;26682;51.660;19.338;2023-04-03T12:12:41;8.63;;;2.97;;
40951;SDS011;26682;51.660;19.338;2023-04-03T12:15:26;5.32;;;2.55;;
40951;SDS011;26682;51.660;19.338;2023-04-03T12:36:06;8.60;;;2.72;;
40951;SDS011;26682;51.660;19.338;2023-04-03T12:45:20;8.48;;;5.00;;
40951;SDS011;26682;51.660;19.338;2023-04-03T12:48:10;5.95;;;3.75;;
40951;SDS011;26682;51.660;19.338;2023-04-03T12:51:34;6.82;;;3.42;;
40951;SDS011;26682;51.660;19.338;2023-04-03T12:54:37;10.23;;;5.50;;
40951;SDS011;26682;51.660;19.338;2023-04-03T12:57:24;14.48;;;8.77;;
40951;SDS011;26682;51.660;19.338;2023-04-03T13:03:21;5.78;;;1.95;;
40951;SDS011;26682;51.660;19.338;2023-04-03T13:06:06;16.35;;;8.38;;
40951;SDS011;26682;51.660;19.338;2023-04-03T13:08:52;16.77;;;9.20;;
40951;SDS011;26682;51.660;19.338;2023-04-03T13:11:40;13.27;;;7.03;;
40951;SDS011;26682;51.660;19.338;2023-04-03T13:14:27;22.58;;;13.27;;
40951;SDS011;26682;51.660;19.338;2023-04-03T13:17:48;14.65;;;6.47;;
40951;SDS011;26682;51.660;19.338;2023-04-03T13:20:33;12.88;;;7.60;;
40951;SDS011;26682;51.660;19.338;2023-04-03T13:23:19;6.68;;;3.22;;
40951;SDS011;26682;51.660;19.338;2023-04-03T13:26:03;21.42;;;11.95;;
40951;SDS011;26682;51.660;19.338;2023-04-03T13:28:47;15.52;;;8.32;;
40951;SDS011;26682;51.660;19.338;2023-04-03T13:31:34;20.33;;;14.52;;
40951;SDS011;26682;51.660;19.338;2023-04-03T13:34:21;16.90;;;8.82;;
40951;SDS011;26682;51.660;19.338;2023-04-03T13:37:19;5.90;;;4.22;;
40951;SDS011;26682;51.660;19.338;2023-04-03T13:43:53;9.65;;;4.65;;
40951;SDS011;26682;51.660;19.338;2023-04-03T13:47:21;16.23;;;4.75;;
40951;SDS011;26682;51.660;19.338;2023-04-03T13:50:26;15.07;;;8.00;;
40951;SDS011;26682;51.660;19.338;2023-04-03T13:53:30;13.45;;;7.20;;
40951;SDS011;26682;51.660;19.338;2023-04-03T13:56:44;10.95;;;5.65;;
40951;SDS011;26682;51.660;19.338;2023-04-03T13:59:32;12.18;;;6.13;;
40951;SDS011;26682;51.660;19.338;2023-04-03T14:02:21;7.45;;;3.80;;
40951;SDS011;26682;51.660;19.338;2023-04-03T14:05:14;6.90;;;3.50;;
40951;SDS011;26682;51.660;19.338;2023-04-03T14:07:59;17.75;;;6.60;;
40951;SDS011;26682;51.660;19.338;2023-04-03T14:10:43;12.75;;;4.82;;
40951;SDS011;26682;51.660;19.338;2023-04-03T14:13:29;6.07;;;3.40;;
40951;SDS011;26682;51.660;19.338;2023-04-03T14:16:16;7.37;;;3.87;;
40951;SDS011;26682;51.660;19.338;2023-04-03T14:19:01;8.98;;;4.68;;
40951;SDS011;26682;51.660;19.338;2023-04-03T14:21:44;6.78;;;2.97;;
40951;SDS011;26682;51.660;19.338;2023-04-03T14:24:27;18.67;;;7.95;;
40951;SDS011;26682;51.660;19.338;2023-04-03T14:27:22;23.55;;;11.52;;
40951;SDS011;26682;51.660;19.338;2023-04-03T14:33:10;20.63;;;8.93;;
40951;SDS011;26682;51.660;19.338;2023-04-03T14:35:56;21.73;;;8.80;;
40951;SDS011;26682;51.660;19.338;2023-04-03T14:38:39;16.55;;;7.55;;
40951;SDS011;26682;51.660;19.338;2023-04-03T14:41:24;15.02;;;7.38;;
40951;SDS011;26682;51.660;19.338;2023-04-03T14:44:07;16.40;;;5.72;;
40951;SDS011;26682;51.660;19.338;2023-04-03T14:46:50;5.32;;;2.53;;
40951;SDS011;26682;51.660;19.338;2023-04-03T14:49:38;9.60;;;3.78;;
40951;SDS011;26682;51.660;19.338;2023-04-03T14:52:22;12.82;;;5.18;;
40951;SDS011;26682;51.660;19.338;2023-04-03T14:55:07;8.07;;;4.38;;
40951;SDS011;26682;51.660;19.338;2023-04-03T14:57:51;10.82;;;4.55;;
40951;SDS011;26682;51.660;19.338;2023-04-03T15:00:34;24.77;;;7.47;;
40951;SDS011;26682;51.660;19.338;2023-04-03T15:03:19;16.63;;;6.05;;
40951;SDS011;26682;51.660;19.338;2023-04-03T15:06:03;15.93;;;6.00;;
40951;SDS011;26682;51.660;19.338;2023-04-03T15:08:46;6.65;;;3.95;;
40951;SDS011;26682;51.660;19.338;2023-04-03T15:11:29;9.60;;;3.95;;
40951;SDS011;26682;51.660;19.338;2023-04-03T15:14:11;6.03;;;3.03;;
40951;SDS011;26682;51.660;19.338;2023-04-03T15:16:53;13.30;;;7.18;;
40951;SDS011;26682;51.660;19.338;2023-04-03T15:19:37;9.20;;;4.20;;
40951;SDS011;26682;51.660;19.338;2023-04-03T15:22:19;17.38;;;7.50;;
40951;SDS011;26682;51.660;19.338;2023-04-03T15:25:02;14.82;;;7.90;;
40951;SDS011;26682;51.660;19.338;2023-04-03T15:27:45;11.35;;;4.90;;
40951;SDS011;26682;51.660;19.338;2023-04-03T15:30:27;13.30;;;6.65;;
40951;SDS011;26682;51.660;19.338;2023-04-03T15:33:10;10.02;;;5.65;;
40951;SDS011;26682;51.660;19.338;2023-04-03T15:35:53;6.28;;;3.60;;
40951;SDS011;26682;51.660;19.338;2023-04-03T15:38:48;5.35;;;2.88;;
40951;SDS011;26682;51.660;19.338;2023-04-03T15:41:31;7.20;;;4.63;;
40951;SDS011;26682;51.660;19.338;2023-04-03T15:44:14;6.32;;;3.17;;
40951;SDS011;26682;51.660;19.338;2023-04-03T15:47:00;9.40;;;5.57;;
40951;SDS011;26682;51.660;19.338;2023-04-03T15:49:43;10.05;;;4.70;;
40951;SDS011;26682;51.660;19.338;2023-04-03T15:52:26;11.05;;;6.32;;
40951;SDS011;26682;51.660;19.338;2023-04-03T15:55:08;21.65;;;8.98;;
40951;SDS011;26682;51.660;19.338;2023-04-03T15:57:52;16.00;;;5.68;;
40951;SDS011;26682;51.660;19.338;2023-04-03T16:00:36;18.95;;;8.00;;
40951;SDS011;26682;51.660;19.338;2023-04-03T16:03:20;13.82;;;6.40;;
40951;SDS011;26682;51.660;19.338;2023-04-03T16:06:04;13.45;;;6.32;;
40951;SDS011;26682;51.660;19.338;2023-04-03T16:08:47;17.10;;;8.27;;
40951;SDS011;26682;51.660;19.338;2023-04-03T16:11:30;20.90;;;8.88;;
40951;SDS011;26682;51.660;19.338;2023-04-03T16:14:13;12.00;;;6.20;;
40951;SDS011;26682;51.660;19.338;2023-04-03T16:16:56;16.13;;;8.05;;
40951;SDS011;26682;51.660;19.338;2023-04-03T16:19:40;26.60;;;12.65;;
40951;SDS011;26682;51.660;19.338;2023-04-03T16:22:23;20.42;;;9.52;;
40951;SDS011;26682;51.660;19.338;2023-04-03T16:25:08;28.65;;;13.35;;
40951;SDS011;26682;51.660;19.338;2023-04-03T16:27:50;17.35;;;10.57;;
40951;SDS011;26682;51.660;19.338;2023-04-03T16:30:33;23.98;;;12.40;;
40951;SDS011;26682;51.660;19.338;2023-04-03T16:33:15;30.77;;;15.85;;
40951;SDS011;26682;51.660;19.338;2023-04-03T16:35:58;28.08;;;14.13;;
40951;SDS011;26682;51.660;19.338;2023-04-03T16:38:41;45.38;;;21.92;;
40951;SDS011;26682;51.660;19.338;2023-04-03T16:41:24;30.00;;;12.57;;
40951;SDS011;26682;51.660;19.338;2023-04-03T16:44:06;15.30;;;7.72;;
40951;SDS011;26682;51.660;19.338;2023-04-03T16:46:49;15.15;;;7.53;;
40951;SDS011;26682;51.660;19.338;2023-04-03T16:49:33;15.70;;;7.93;;
40951;SDS011;26682;51.660;19.338;2023-04-03T16:52:17;43.60;;;22.60;;
40951;SDS011;26682;51.660;19.338;2023-04-03T16:54:59;48.30;;;23.75;;
40951;SDS011;26682;51.660;19.338;2023-04-03T16:57:42;21.25;;;13.40;;
40951;SDS011;26682;51.660;19.338;2023-04-03T17:00:24;32.90;;;21.23;;
40951;SDS011;26682;51.660;19.338;2023-04-03T17:03:07;21.33;;;12.20;;
40951;SDS011;26682;51.660;19.338;2023-04-03T17:05:50;20.20;;;11.02;;
40951;SDS011;26682;51.660;19.338;2023-04-03T17:08:33;11.10;;;7.68;;
40951;SDS011;26682;51.660;19.338;2023-04-03T17:11:16;16.02;;;10.93;;
40951;SDS011;26682;51.660;19.338;2023-04-03T17:13:59;18.63;;;12.27;;
40951;SDS011;26682;51.660;19.338;2023-04-03T17:16:42;19.73;;;10.88;;
40951;SDS011;26682;51.660;19.338;2023-04-03T17:19:25;15.32;;;8.85;;
40951;SDS011;26682;51.660;19.338;2023-04-03T17:22:09;12.57;;;7.45;;
40951;SDS011;26682;51.660;19.338;2023-04-03T17:24:52;16.20;;;6.72;;
40951;SDS011;26682;51.660;19.338;2023-04-03T17:27:34;85.20;;;36.90;;
40951;SDS011;26682;51.660;19.338;2023-04-03T17:30:18;42.85;;;17.35;;
40951;SDS011;26682;51.660;19.338;2023-04-03T17:33:00;37.05;;;17.25;;
40951;SDS011;26682;51.660;19.338;2023-04-03T17:35:43;40.85;;;19.80;;
40951;SDS011;26682;51.660;19.338;2023-04-03T17:38:27;46.47;;;21.65;;
40951;SDS011;26682;51.660;19.338;2023-04-03T17:41:10;38.08;;;19.42;;
40951;SDS011;26682;51.660;19.338;2023-04-03T17:43:53;20.65;;;10.88;;